Main page
METAR-TAF:

METAR-TAF

Airports :

Shahrekord, Iran

Shahrekord Airport

latitude: 32-20N, longitude: 050-51E, elevation: 2078 m

Current weather observation

The report was made 29 minutes ago, at 20:00 UTC
Wind 2 kt from the West/Southwest
Temperature 9°C
Humidity 76%
Pressure 1024 hPa
Visibility: 9000 m
Few clouds at a height of 4000 ft
Broken clouds at a height of 19000 ft

METAR: OIFS 302000Z 25002KT 9000 FEW040 BKN190 09/05 Q1024

Time: 00:59 (20:29 UTC)


TAF: missing

Weather observations and forecasts of more than 4000 airports (METAR and TAF reports).

The available stations are represented by yellow and red dots on the map.

Hover mouse over dot to see the name of the station.

Then click to see weather observations and forecasts.

To change the map : click on the green buttons with a black cross to zoom in, on the green button with a dash to zoom out, or on the green arrows for adjacent maps.


METAR-TAF: